sensor_id;sensor_type;location;lat;lon;timestamp;P1;durP1;ratioP1;P2;durP2;ratioP2
31760;SDS011;18335;51.486;7.562;2023-03-13T00:00:25;25.08;;;5.10;;
31760;SDS011;18335;51.486;7.562;2023-03-13T00:02:52;22.92;;;4.07;;
31760;SDS011;18335;51.486;7.562;2023-03-13T00:05:20;21.08;;;4.72;;
31760;SDS011;18335;51.486;7.562;2023-03-13T00:07:46;22.52;;;5.18;;
31760;SDS011;18335;51.486;7.562;2023-03-13T00:10:13;19.98;;;5.28;;
31760;SDS011;18335;51.486;7.562;2023-03-13T00:12:40;22.00;;;4.35;;
31760;SDS011;18335;51.486;7.562;2023-03-13T00:15:07;21.45;;;4.63;;
31760;SDS011;18335;51.486;7.562;2023-03-13T00:17:34;21.13;;;3.80;;
31760;SDS011;18335;51.486;7.562;2023-03-13T00:20:01;16.80;;;3.90;;
31760;SDS011;18335;51.486;7.562;2023-03-13T00:22:31;20.10;;;3.47;;
31760;SDS011;18335;51.486;7.562;2023-03-13T00:24:57;21.98;;;4.53;;
31760;SDS011;18335;51.486;7.562;2023-03-13T00:27:24;19.45;;;3.70;;
31760;SDS011;18335;51.486;7.562;2023-03-13T00:29:51;18.13;;;5.72;;
31760;SDS011;18335;51.486;7.562;2023-03-13T00:32:17;22.55;;;4.97;;
31760;SDS011;18335;51.486;7.562;2023-03-13T00:34:44;17.63;;;3.60;;
31760;SDS011;18335;51.486;7.562;2023-03-13T00:37:10;17.50;;;3.65;;
31760;SDS011;18335;51.486;7.562;2023-03-13T00:39:39;20.20;;;3.78;;
31760;SDS011;18335;51.486;7.562;2023-03-13T00:42:05;17.25;;;3.78;;
31760;SDS011;18335;51.486;7.562;2023-03-13T00:44:32;25.38;;;4.35;;
31760;SDS011;18335;51.486;7.562;2023-03-13T00:46:59;22.00;;;4.88;;
31760;SDS011;18335;51.486;7.562;2023-03-13T00:49:26;23.42;;;3.83;;
31760;SDS011;18335;51.486;7.562;2023-03-13T00:51:52;21.67;;;4.10;;
31760;SDS011;18335;51.486;7.562;2023-03-13T00:54:19;21.13;;;3.42;;
31760;SDS011;18335;51.486;7.562;2023-03-13T00:56:47;21.65;;;6.38;;
31760;SDS011;18335;51.486;7.562;2023-03-13T00:59:14;16.25;;;2.92;;
31760;SDS011;18335;51.486;7.562;2023-03-13T01:01:41;22.10;;;5.18;;
31760;SDS011;18335;51.486;7.562;2023-03-13T01:04:08;19.27;;;4.30;;
31760;SDS011;18335;51.486;7.562;2023-03-13T01:06:37;20.70;;;3.88;;
31760;SDS011;18335;51.486;7.562;2023-03-13T01:09:08;21.48;;;4.15;;
31760;SDS011;18335;51.486;7.562;2023-03-13T01:11:37;21.15;;;3.92;;
31760;SDS011;18335;51.486;7.562;2023-03-13T01:14:07;17.35;;;3.60;;
31760;SDS011;18335;51.486;7.562;2023-03-13T01:16:36;19.02;;;4.00;;
31760;SDS011;18335;51.486;7.562;2023-03-13T01:19:04;15.88;;;3.75;;
31760;SDS011;18335;51.486;7.562;2023-03-13T01:21:33;19.80;;;5.13;;
31760;SDS011;18335;51.486;7.562;2023-03-13T01:23:59;25.73;;;3.70;;
31760;SDS011;18335;51.486;7.562;2023-03-13T01:26:27;17.23;;;3.55;;
31760;SDS011;18335;51.486;7.562;2023-03-13T01:28:54;21.98;;;4.47;;
31760;SDS011;18335;51.486;7.562;2023-03-13T01:31:23;28.75;;;5.30;;
31760;SDS011;18335;51.486;7.562;2023-03-13T01:33:52;32.47;;;4.40;;
31760;SDS011;18335;51.486;7.562;2023-03-13T01:36:20;15.38;;;4.00;;
31760;SDS011;18335;51.486;7.562;2023-03-13T01:38:47;20.05;;;3.40;;
31760;SDS011;18335;51.486;7.562;2023-03-13T01:41:15;18.52;;;4.65;;
31760;SDS011;18335;51.486;7.562;2023-03-13T01:43:43;15.38;;;3.08;;
31760;SDS011;18335;51.486;7.562;2023-03-13T01:46:12;16.48;;;3.40;;
31760;SDS011;18335;51.486;7.562;2023-03-13T01:48:54;19.30;;;3.33;;
31760;SDS011;18335;51.486;7.562;2023-03-13T01:51:29;16.52;;;4.57;;
31760;SDS011;18335;51.486;7.562;2023-03-13T01:54:01;19.50;;;4.05;;
31760;SDS011;18335;51.486;7.562;2023-03-13T01:56:33;15.40;;;3.72;;
31760;SDS011;18335;51.486;7.562;2023-03-13T01:59:03;22.70;;;4.95;;
31760;SDS011;18335;51.486;7.562;2023-03-13T02:01:33;23.30;;;4.20;;
31760;SDS011;18335;51.486;7.562;2023-03-13T02:04:04;17.88;;;3.20;;
31760;SDS011;18335;51.486;7.562;2023-03-13T02:06:32;23.23;;;4.13;;
31760;SDS011;18335;51.486;7.562;2023-03-13T02:09:02;16.63;;;3.42;;
31760;SDS011;18335;51.486;7.562;2023-03-13T02:11:36;19.65;;;4.30;;
31760;SDS011;18335;51.486;7.562;2023-03-13T02:19:06;18.02;;;3.97;;
31760;SDS011;18335;51.486;7.562;2023-03-13T02:21:44;21.63;;;4.20;;
31760;SDS011;18335;51.486;7.562;2023-03-13T02:24:19;21.42;;;4.22;;
31760;SDS011;18335;51.486;7.562;2023-03-13T02:29:22;17.52;;;3.17;;
31760;SDS011;18335;51.486;7.562;2023-03-13T02:31:50;21.95;;;3.58;;
31760;SDS011;18335;51.486;7.562;2023-03-13T02:34:19;22.55;;;4.07;;
31760;SDS011;18335;51.486;7.562;2023-03-13T02:36:48;20.30;;;4.35;;
31760;SDS011;18335;51.486;7.562;2023-03-13T02:39:17;20.92;;;3.55;;
31760;SDS011;18335;51.486;7.562;2023-03-13T02:41:47;19.30;;;3.47;;
31760;SDS011;18335;51.486;7.562;2023-03-13T02:44:16;23.50;;;5.55;;
31760;SDS011;18335;51.486;7.562;2023-03-13T02:46:44;9.90;;;3.30;;
31760;SDS011;18335;51.486;7.562;2023-03-13T02:49:16;20.05;;;3.70;;
31760;SDS011;18335;51.486;7.562;2023-03-13T02:51:46;21.20;;;4.10;;
31760;SDS011;18335;51.486;7.562;2023-03-13T02:54:16;20.00;;;3.83;;
31760;SDS011;18335;51.486;7.562;2023-03-13T02:56:45;19.80;;;4.10;;
31760;SDS011;18335;51.486;7.562;2023-03-13T02:59:14;18.88;;;3.67;;
31760;SDS011;18335;51.486;7.562;2023-03-13T03:01:44;16.60;;;3.55;;
31760;SDS011;18335;51.486;7.562;2023-03-13T03:04:11;13.60;;;2.60;;
31760;SDS011;18335;51.486;7.562;2023-03-13T03:06:38;16.25;;;3.08;;
31760;SDS011;18335;51.486;7.562;2023-03-13T03:09:04;13.73;;;3.15;;
31760;SDS011;18335;51.486;7.562;2023-03-13T03:11:34;17.40;;;3.20;;
31760;SDS011;18335;51.486;7.562;2023-03-13T03:14:06;12.13;;;3.40;;
31760;SDS011;18335;51.486;7.562;2023-03-13T03:16:37;11.77;;;3.55;;
31760;SDS011;18335;51.486;7.562;2023-03-13T03:19:06;16.60;;;3.70;;
31760;SDS011;18335;51.486;7.562;2023-03-13T03:21:33;14.45;;;3.10;;
31760;SDS011;18335;51.486;7.562;2023-03-13T03:24:00;10.73;;;2.75;;
31760;SDS011;18335;51.486;7.562;2023-03-13T03:26:28;12.73;;;2.70;;
31760;SDS011;18335;51.486;7.562;2023-03-13T03:28:55;7.38;;;1.70;;
31760;SDS011;18335;51.486;7.562;2023-03-13T03:31:22;16.42;;;2.60;;
31760;SDS011;18335;51.486;7.562;2023-03-13T03:33:48;9.45;;;2.90;;
31760;SDS011;18335;51.486;7.562;2023-03-13T03:36:19;12.23;;;3.28;;
31760;SDS011;18335;51.486;7.562;2023-03-13T03:38:48;13.70;;;3.08;;
31760;SDS011;18335;51.486;7.562;2023-03-13T03:41:17;15.75;;;2.60;;
31760;SDS011;18335;51.486;7.562;2023-03-13T03:43:45;10.07;;;2.05;;
31760;SDS011;18335;51.486;7.562;2023-03-13T03:46:15;12.43;;;2.15;;
31760;SDS011;18335;51.486;7.562;2023-03-13T03:48:42;15.00;;;3.17;;
31760;SDS011;18335;51.486;7.562;2023-03-13T03:51:10;10.85;;;2.53;;
31760;SDS011;18335;51.486;7.562;2023-03-13T03:53:41;10.20;;;2.10;;
31760;SDS011;18335;51.486;7.562;2023-03-13T03:56:08;9.63;;;2.05;;
31760;SDS011;18335;51.486;7.562;2023-03-13T03:58:39;9.07;;;2.40;;
31760;SDS011;18335;51.486;7.562;2023-03-13T04:01:17;9.93;;;1.80;;
31760;SDS011;18335;51.486;7.562;2023-03-13T04:03:44;8.27;;;1.48;;
31760;SDS011;18335;51.486;7.562;2023-03-13T04:06:12;9.85;;;2.10;;
31760;SDS011;18335;51.486;7.562;2023-03-13T04:08:41;8.57;;;1.98;;
31760;SDS011;18335;51.486;7.562;2023-03-13T04:11:10;9.02;;;1.70;;
31760;SDS011;18335;51.486;7.562;2023-03-13T04:13:40;11.30;;;2.95;;
31760;SDS011;18335;51.486;7.562;2023-03-13T04:16:07;5.40;;;1.60;;
31760;SDS011;18335;51.486;7.562;2023-03-13T04:18:35;8.52;;;1.35;;
31760;SDS011;18335;51.486;7.562;2023-03-13T04:21:03;9.82;;;2.08;;
31760;SDS011;18335;51.486;7.562;2023-03-13T04:23:39;6.32;;;1.55;;
31760;SDS011;18335;51.486;7.562;2023-03-13T04:26:07;7.47;;;2.03;;
31760;SDS011;18335;51.486;7.562;2023-03-13T04:28:34;9.32;;;1.98;;
31760;SDS011;18335;51.486;7.562;2023-03-13T04:31:03;7.30;;;1.70;;
31760;SDS011;18335;51.486;7.562;2023-03-13T04:33:54;6.53;;;1.38;;
31760;SDS011;18335;51.486;7.562;2023-03-13T04:36:53;8.45;;;1.38;;
31760;SDS011;18335;51.486;7.562;2023-03-13T04:39:36;4.63;;;1.15;;
31760;SDS011;18335;51.486;7.562;2023-03-13T04:42:26;7.50;;;2.63;;
31760;SDS011;18335;51.486;7.562;2023-03-13T04:45:05;5.97;;;1.55;;
31760;SDS011;18335;51.486;7.562;2023-03-13T04:47:50;9.20;;;2.15;;
31760;SDS011;18335;51.486;7.562;2023-03-13T04:50:40;9.18;;;1.40;;
31760;SDS011;18335;51.486;7.562;2023-03-13T04:53:24;12.93;;;1.52;;
31760;SDS011;18335;51.486;7.562;2023-03-13T04:56:02;8.00;;;1.48;;
31760;SDS011;18335;51.486;7.562;2023-03-13T04:58:47;8.00;;;2.05;;
31760;SDS011;18335;51.486;7.562;2023-03-13T05:01:51;6.43;;;1.25;;
31760;SDS011;18335;51.486;7.562;2023-03-13T05:04:42;5.47;;;1.40;;
31760;SDS011;18335;51.486;7.562;2023-03-13T05:07:24;9.35;;;1.75;;
31760;SDS011;18335;51.486;7.562;2023-03-13T05:10:17;4.43;;;1.13;;
31760;SDS011;18335;51.486;7.562;2023-03-13T05:13:04;5.57;;;1.30;;
31760;SDS011;18335;51.486;7.562;2023-03-13T05:15:40;7.20;;;1.42;;
31760;SDS011;18335;51.486;7.562;2023-03-13T05:18:25;4.25;;;1.70;;
31760;SDS011;18335;51.486;7.562;2023-03-13T05:21:18;3.83;;;1.30;;
31760;SDS011;18335;51.486;7.562;2023-03-13T05:24:04;9.85;;;2.40;;
31760;SDS011;18335;51.486;7.562;2023-03-13T05:26:37;4.18;;;1.42;;
31760;SDS011;18335;51.486;7.562;2023-03-13T05:32:11;4.50;;;1.23;;
31760;SDS011;18335;51.486;7.562;2023-03-13T05:34:55;4.78;;;1.48;;
31760;SDS011;18335;51.486;7.562;2023-03-13T05:37:51;4.55;;;1.20;;
31760;SDS011;18335;51.486;7.562;2023-03-13T05:40:50;5.45;;;1.23;;
31760;SDS011;18335;51.486;7.562;2023-03-13T05:43:32;3.53;;;1.25;;
31760;SDS011;18335;51.486;7.562;2023-03-13T05:46:01;4.13;;;1.30;;
31760;SDS011;18335;51.486;7.562;2023-03-13T05:48:42;3.85;;;1.50;;
31760;SDS011;18335;51.486;7.562;2023-03-13T05:51:35;5.68;;;1.90;;
31760;SDS011;18335;51.486;7.562;2023-03-13T05:54:27;6.18;;;1.70;;
31760;SDS011;18335;51.486;7.562;2023-03-13T05:57:08;3.47;;;1.67;;
31760;SDS011;18335;51.486;7.562;2023-03-13T05:59:42;5.13;;;1.88;;
31760;SDS011;18335;51.486;7.562;2023-03-13T06:02:31;4.07;;;1.88;;
31760;SDS011;18335;51.486;7.562;2023-03-13T06:05:00;8.02;;;3.00;;
31760;SDS011;18335;51.486;7.562;2023-03-13T06:07:27;5.55;;;1.67;;
31760;SDS011;18335;51.486;7.562;2023-03-13T06:09:54;5.03;;;1.90;;
31760;SDS011;18335;51.486;7.562;2023-03-13T06:12:21;3.55;;;1.80;;
31760;SDS011;18335;51.486;7.562;2023-03-13T06:14:47;4.15;;;1.90;;
31760;SDS011;18335;51.486;7.562;2023-03-13T06:17:14;5.28;;;1.98;;
31760;SDS011;18335;51.486;7.562;2023-03-13T06:19:41;10.43;;;2.38;;
31760;SDS011;18335;51.486;7.562;2023-03-13T06:22:09;5.00;;;2.00;;
31760;SDS011;18335;51.486;7.562;2023-03-13T06:24:35;4.57;;;1.83;;
31760;SDS011;18335;51.486;7.562;2023-03-13T06:27:02;7.50;;;2.20;;
31760;SDS011;18335;51.486;7.562;2023-03-13T06:29:29;5.60;;;2.33;;
31760;SDS011;18335;51.486;7.562;2023-03-13T06:31:56;7.22;;;2.10;;
31760;SDS011;18335;51.486;7.562;2023-03-13T06:34:22;4.72;;;1.73;;
31760;SDS011;18335;51.486;7.562;2023-03-13T06:36:49;6.50;;;2.17;;
31760;SDS011;18335;51.486;7.562;2023-03-13T06:39:17;6.60;;;2.40;;
31760;SDS011;18335;51.486;7.562;2023-03-13T06:41:44;5.95;;;2.10;;
31760;SDS011;18335;51.486;7.562;2023-03-13T06:44:10;6.63;;;2.50;;
31760;SDS011;18335;51.486;7.562;2023-03-13T06:46:37;3.53;;;1.85;;
31760;SDS011;18335;51.486;7.562;2023-03-13T06:49:04;3.40;;;1.90;;
31760;SDS011;18335;51.486;7.562;2023-03-13T06:51:31;6.03;;;2.22;;
31760;SDS011;18335;51.486;7.562;2023-03-13T06:53:58;5.85;;;2.20;;
31760;SDS011;18335;51.486;7.562;2023-03-13T06:56:28;5.82;;;2.08;;
31760;SDS011;18335;51.486;7.562;2023-03-13T06:58:55;8.25;;;2.72;;
31760;SDS011;18335;51.486;7.562;2023-03-13T07:01:21;5.95;;;1.70;;
31760;SDS011;18335;51.486;7.562;2023-03-13T07:03:48;7.85;;;1.77;;
31760;SDS011;18335;51.486;7.562;2023-03-13T07:06:15;4.35;;;1.98;;
31760;SDS011;18335;51.486;7.562;2023-03-13T07:08:42;4.40;;;1.65;;
31760;SDS011;18335;51.486;7.562;2023-03-13T07:11:10;5.70;;;1.63;;
31760;SDS011;18335;51.486;7.562;2023-03-13T07:13:39;3.65;;;1.38;;
31760;SDS011;18335;51.486;7.562;2023-03-13T07:16:06;3.92;;;1.27;;
31760;SDS011;18335;51.486;7.562;2023-03-13T07:18:35;3.85;;;1.65;;
31760;SDS011;18335;51.486;7.562;2023-03-13T07:21:02;3.30;;;1.40;;
31760;SDS011;18335;51.486;7.562;2023-03-13T07:23:30;5.68;;;1.88;;
31760;SDS011;18335;51.486;7.562;2023-03-13T07:25:59;2.97;;;1.63;;
31760;SDS011;18335;51.486;7.562;2023-03-13T07:28:27;6.10;;;1.83;;
31760;SDS011;18335;51.486;7.562;2023-03-13T07:31:03;4.97;;;1.67;;
31760;SDS011;18335;51.486;7.562;2023-03-13T07:33:31;2.72;;;1.50;;
31760;SDS011;18335;51.486;7.562;2023-03-13T07:35:58;4.30;;;2.40;;
31760;SDS011;18335;51.486;7.562;2023-03-13T07:38:24;6.07;;;1.35;;
31760;SDS011;18335;51.486;7.562;2023-03-13T07:40:52;4.32;;;1.40;;
31760;SDS011;18335;51.486;7.562;2023-03-13T07:43:20;5.38;;;1.73;;
31760;SDS011;18335;51.486;7.562;2023-03-13T07:45:51;4.13;;;1.63;;
31760;SDS011;18335;51.486;7.562;2023-03-13T07:48:21;5.32;;;2.03;;
31760;SDS011;18335;51.486;7.562;2023-03-13T07:50:49;7.57;;;1.75;;
31760;SDS011;18335;51.486;7.562;2023-03-13T07:53:15;3.65;;;1.58;;
31760;SDS011;18335;51.486;7.562;2023-03-13T07:55:52;3.42;;;1.60;;
31760;SDS011;18335;51.486;7.562;2023-03-13T07:58:20;5.43;;;1.83;;
31760;SDS011;18335;51.486;7.562;2023-03-13T08:00:47;5.25;;;1.42;;
31760;SDS011;18335;51.486;7.562;2023-03-13T08:03:14;6.60;;;2.72;;
31760;SDS011;18335;51.486;7.562;2023-03-13T08:05:43;3.55;;;1.73;;
31760;SDS011;18335;51.486;7.562;2023-03-13T08:08:09;3.60;;;1.30;;
31760;SDS011;18335;51.486;7.562;2023-03-13T08:10:36;4.15;;;1.83;;
31760;SDS011;18335;51.486;7.562;2023-03-13T08:13:03;5.70;;;2.53;;
31760;SDS011;18335;51.486;7.562;2023-03-13T08:15:30;4.70;;;1.50;;
31760;SDS011;18335;51.486;7.562;2023-03-13T08:17:56;8.80;;;3.53;;
31760;SDS011;18335;51.486;7.562;2023-03-13T08:20:23;8.90;;;2.33;;
31760;SDS011;18335;51.486;7.562;2023-03-13T08:22:52;7.93;;;2.08;;
31760;SDS011;18335;51.486;7.562;2023-03-13T08:25:21;6.70;;;2.08;;
31760;SDS011;18335;51.486;7.562;2023-03-13T08:27:47;10.55;;;2.53;;
31760;SDS011;18335;51.486;7.562;2023-03-13T08:30:14;5.18;;;1.80;;
31760;SDS011;18335;51.486;7.562;2023-03-13T08:32:41;5.97;;;1.63;;
31760;SDS011;18335;51.486;7.562;2023-03-13T08:35:08;8.20;;;2.10;;
31760;SDS011;18335;51.486;7.562;2023-03-13T08:37:35;6.20;;;1.98;;
31760;SDS011;18335;51.486;7.562;2023-03-13T08:40:03;7.00;;;2.40;;
31760;SDS011;18335;51.486;7.562;2023-03-13T08:42:35;6.80;;;2.13;;
31760;SDS011;18335;51.486;7.562;2023-03-13T08:45:03;10.88;;;2.17;;
31760;SDS011;18335;51.486;7.562;2023-03-13T08:47:30;10.80;;;2.10;;
31760;SDS011;18335;51.486;7.562;2023-03-13T08:49:57;9.38;;;2.45;;
31760;SDS011;18335;51.486;7.562;2023-03-13T08:52:24;7.88;;;1.90;;
31760;SDS011;18335;51.486;7.562;2023-03-13T08:54:51;8.60;;;2.20;;
31760;SDS011;18335;51.486;7.562;2023-03-13T08:57:20;8.50;;;2.25;;
31760;SDS011;18335;51.486;7.562;2023-03-13T08:59:47;9.43;;;2.20;;
31760;SDS011;18335;51.486;7.562;2023-03-13T09:02:14;9.63;;;2.30;;
31760;SDS011;18335;51.486;7.562;2023-03-13T09:04:44;11.70;;;2.28;;
31760;SDS011;18335;51.486;7.562;2023-03-13T09:07:12;6.35;;;2.10;;
31760;SDS011;18335;51.486;7.562;2023-03-13T09:09:39;7.90;;;2.00;;
31760;SDS011;18335;51.486;7.562;2023-03-13T09:12:06;6.70;;;2.22;;
31760;SDS011;18335;51.486;7.562;2023-03-13T09:14:35;9.18;;;1.80;;
31760;SDS011;18335;51.486;7.562;2023-03-13T09:17:01;10.82;;;2.67;;
31760;SDS011;18335;51.486;7.562;2023-03-13T09:19:28;14.45;;;4.80;;
31760;SDS011;18335;51.486;7.562;2023-03-13T09:21:55;6.28;;;2.40;;
31760;SDS011;18335;51.486;7.562;2023-03-13T09:24:22;5.70;;;2.28;;
31760;SDS011;18335;51.486;7.562;2023-03-13T09:26:49;7.47;;;2.20;;
31760;SDS011;18335;51.486;7.562;2023-03-13T09:29:15;9.10;;;2.22;;
31760;SDS011;18335;51.486;7.562;2023-03-13T09:31:44;8.32;;;2.78;;
31760;SDS011;18335;51.486;7.562;2023-03-13T09:34:11;9.32;;;2.03;;
31760;SDS011;18335;51.486;7.562;2023-03-13T09:36:38;9.07;;;2.60;;
31760;SDS011;18335;51.486;7.562;2023-03-13T09:39:12;5.60;;;1.95;;
31760;SDS011;18335;51.486;7.562;2023-03-13T09:41:41;9.10;;;2.17;;
31760;SDS011;18335;51.486;7.562;2023-03-13T09:44:16;10.27;;;2.33;;
31760;SDS011;18335;51.486;7.562;2023-03-13T09:46:53;7.88;;;2.50;;
31760;SDS011;18335;51.486;7.562;2023-03-13T09:49:28;7.07;;;2.45;;
31760;SDS011;18335;51.486;7.562;2023-03-13T09:51:59;6.30;;;2.30;;
31760;SDS011;18335;51.486;7.562;2023-03-13T09:54:40;10.50;;;2.58;;
31760;SDS011;18335;51.486;7.562;2023-03-13T09:57:14;13.38;;;3.10;;
31760;SDS011;18335;51.486;7.562;2023-03-13T09:59:51;8.02;;;2.00;;
31760;SDS011;18335;51.486;7.562;2023-03-13T10:02:24;11.18;;;2.92;;
31760;SDS011;18335;51.486;7.562;2023-03-13T10:04:59;8.60;;;2.47;;
31760;SDS011;18335;51.486;7.562;2023-03-13T10:07:31;8.52;;;2.83;;
31760;SDS011;18335;51.486;7.562;2023-03-13T10:09:59;9.85;;;3.53;;
31760;SDS011;18335;51.486;7.562;2023-03-13T10:12:30;10.95;;;3.17;;
31760;SDS011;18335;51.486;7.562;2023-03-13T10:15:14;8.70;;;2.20;;
31760;SDS011;18335;51.486;7.562;2023-03-13T10:17:50;8.15;;;2.35;;
31760;SDS011;18335;51.486;7.562;2023-03-13T10:20:21;7.43;;;1.95;;
31760;SDS011;18335;51.486;7.562;2023-03-13T10:22:51;10.07;;;2.75;;
31760;SDS011;18335;51.486;7.562;2023-03-13T10:25:26;5.78;;;1.90;;
31760;SDS011;18335;51.486;7.562;2023-03-13T10:27:57;6.00;;;2.20;;
31760;SDS011;18335;51.486;7.562;2023-03-13T10:30:26;6.78;;;2.38;;
31760;SDS011;18335;51.486;7.562;2023-03-13T10:32:58;6.07;;;2.00;;
31760;SDS011;18335;51.486;7.562;2023-03-13T10:35:44;6.10;;;1.85;;
31760;SDS011;18335;51.486;7.562;2023-03-13T10:38:12;7.40;;;2.33;;
31760;SDS011;18335;51.486;7.562;2023-03-13T10:40:43;6.07;;;1.98;;
31760;SDS011;18335;51.486;7.562;2023-03-13T10:43:24;7.72;;;1.80;;
31760;SDS011;18335;51.486;7.562;2023-03-13T10:45:54;2.92;;;1.48;;
31760;SDS011;18335;51.486;7.562;2023-03-13T10:48:26;6.05;;;1.70;;
31760;SDS011;18335;51.486;7.562;2023-03-13T10:50:57;7.93;;;1.98;;
31760;SDS011;18335;51.486;7.562;2023-03-13T10:53:30;6.50;;;1.50;;
31760;SDS011;18335;51.486;7.562;2023-03-13T10:56:02;4.25;;;1.60;;
31760;SDS011;18335;51.486;7.562;2023-03-13T10:58:39;3.50;;;1.23;;
31760;SDS011;18335;51.486;7.562;2023-03-13T11:01:09;5.32;;;1.73;;
31760;SDS011;18335;51.486;7.562;2023-03-13T11:03:46;3.00;;;1.10;;
31760;SDS011;18335;51.486;7.562;2023-03-13T11:06:26;5.07;;;1.60;;
31760;SDS011;18335;51.486;7.562;2023-03-13T11:09:01;2.42;;;1.15;;
31760;SDS011;18335;51.486;7.562;2023-03-13T11:11:30;4.65;;;1.40;;
31760;SDS011;18335;51.486;7.562;2023-03-13T11:14:14;4.45;;;1.52;;
31760;SDS011;18335;51.486;7.562;2023-03-13T11:16:45;3.65;;;1.35;;
31760;SDS011;18335;51.486;7.562;2023-03-13T11:19:28;3.30;;;1.10;;
31760;SDS011;18335;51.486;7.562;2023-03-13T11:22:09;8.07;;;1.67;;
31760;SDS011;18335;51.486;7.562;2023-03-13T11:24:54;7.50;;;1.40;;
31760;SDS011;18335;51.486;7.562;2023-03-13T11:27:30;2.50;;;1.00;;
31760;SDS011;18335;51.486;7.562;2023-03-13T11:30:12;2.72;;;1.10;;
31760;SDS011;18335;51.486;7.562;2023-03-13T11:32:48;3.17;;;1.08;;
31760;SDS011;18335;51.486;7.562;2023-03-13T11:35:24;3.45;;;1.10;;
31760;SDS011;18335;51.486;7.562;2023-03-13T11:38:02;2.90;;;1.27;;
31760;SDS011;18335;51.486;7.562;2023-03-13T11:40:35;3.88;;;0.80;;
31760;SDS011;18335;51.486;7.562;2023-03-13T11:43:13;2.47;;;0.70;;
31760;SDS011;18335;51.486;7.562;2023-03-13T11:46:02;5.68;;;0.88;;
31760;SDS011;18335;51.486;7.562;2023-03-13T11:48:43;3.47;;;0.88;;
31760;SDS011;18335;51.486;7.562;2023-03-13T11:51:23;2.85;;;0.77;;
31760;SDS011;18335;51.486;7.562;2023-03-13T11:54:02;2.75;;;1.17;;
31760;SDS011;18335;51.486;7.562;2023-03-13T11:56:42;1.93;;;0.83;;
31760;SDS011;18335;51.486;7.562;2023-03-13T11:59:15;2.17;;;0.70;;
31760;SDS011;18335;51.486;7.562;2023-03-13T12:01:52;4.80;;;1.17;;
31760;SDS011;18335;51.486;7.562;2023-03-13T12:04:24;2.50;;;0.90;;
31760;SDS011;18335;51.486;7.562;2023-03-13T12:06:57;2.47;;;1.00;;
31760;SDS011;18335;51.486;7.562;2023-03-13T12:09:29;2.60;;;0.93;;
31760;SDS011;18335;51.486;7.562;2023-03-13T12:12:00;3.00;;;0.80;;
31760;SDS011;18335;51.486;7.562;2023-03-13T12:14:30;5.03;;;0.85;;
31760;SDS011;18335;51.486;7.562;2023-03-13T12:17:02;4.60;;;1.05;;
31760;SDS011;18335;51.486;7.562;2023-03-13T12:19:32;2.45;;;0.73;;
31760;SDS011;18335;51.486;7.562;2023-03-13T12:22:05;2.58;;;0.63;;
31760;SDS011;18335;51.486;7.562;2023-03-13T12:24:41;3.03;;;0.73;;
31760;SDS011;18335;51.486;7.562;2023-03-13T12:27:14;3.35;;;0.73;;
31760;SDS011;18335;51.486;7.562;2023-03-13T12:29:46;4.55;;;1.00;;
31760;SDS011;18335;51.486;7.562;2023-03-13T12:32:21;3.05;;;0.77;;
31760;SDS011;18335;51.486;7.562;2023-03-13T12:34:54;2.25;;;0.88;;
31760;SDS011;18335;51.486;7.562;2023-03-13T12:37:29;1.30;;;0.60;;
31760;SDS011;18335;51.486;7.562;2023-03-13T12:40:03;3.70;;;0.60;;
31760;SDS011;18335;51.486;7.562;2023-03-13T12:42:39;0.90;;;0.65;;
31760;SDS011;18335;51.486;7.562;2023-03-13T12:45:13;2.10;;;0.63;;
31760;SDS011;18335;51.486;7.562;2023-03-13T12:47:53;3.67;;;0.70;;
31760;SDS011;18335;51.486;7.562;2023-03-13T12:50:37;5.35;;;0.95;;
31760;SDS011;18335;51.486;7.562;2023-03-13T12:53:18;3.38;;;0.70;;
31760;SDS011;18335;51.486;7.562;2023-03-13T12:56:00;2.28;;;0.82;;
31760;SDS011;18335;51.486;7.562;2023-03-13T12:58:42;2.00;;;1.00;;
31760;SDS011;18335;51.486;7.562;2023-03-13T13:01:15;3.17;;;0.85;;
31760;SDS011;18335;51.486;7.562;2023-03-13T13:03:51;3.17;;;0.68;;
31760;SDS011;18335;51.486;7.562;2023-03-13T13:06:21;1.65;;;0.55;;
31760;SDS011;18335;51.486;7.562;2023-03-13T13:09:00;2.75;;;0.77;;
31760;SDS011;18335;51.486;7.562;2023-03-13T13:17:31;4.00;;;0.70;;
31760;SDS011;18335;51.486;7.562;2023-03-13T13:20:25;3.53;;;0.70;;
31760;SDS011;18335;51.486;7.562;2023-03-13T13:25:48;3.67;;;0.60;;
31760;SDS011;18335;51.486;7.562;2023-03-13T13:28:23;4.18;;;1.40;;
31760;SDS011;18335;51.486;7.562;2023-03-13T13:30:54;2.53;;;0.95;;
31760;SDS011;18335;51.486;7.562;2023-03-13T13:33:35;3.15;;;0.80;;
31760;SDS011;18335;51.486;7.562;2023-03-13T13:39:20;4.93;;;0.60;;
31760;SDS011;18335;51.486;7.562;2023-03-13T13:41:58;3.25;;;0.93;;
31760;SDS011;18335;51.486;7.562;2023-03-13T13:44:26;2.45;;;0.60;;
31760;SDS011;18335;51.486;7.562;2023-03-13T13:46:56;2.35;;;0.77;;
31760;SDS011;18335;51.486;7.562;2023-03-13T13:52:29;3.88;;;2.15;;
31760;SDS011;18335;51.486;7.562;2023-03-13T13:54:58;2.08;;;1.02;;
31760;SDS011;18335;51.486;7.562;2023-03-13T13:57:28;3.80;;;0.70;;
31760;SDS011;18335;51.486;7.562;2023-03-13T13:59:58;4.28;;;0.70;;
31760;SDS011;18335;51.486;7.562;2023-03-13T14:02:35;5.10;;;0.98;;
31760;SDS011;18335;51.486;7.562;2023-03-13T14:05:14;6.85;;;0.70;;
31760;SDS011;18335;51.486;7.562;2023-03-13T14:07:45;5.68;;;0.93;;
31760;SDS011;18335;51.486;7.562;2023-03-13T14:10:28;7.55;;;1.00;;
31760;SDS011;18335;51.486;7.562;2023-03-13T14:13:09;4.78;;;1.00;;
31760;SDS011;18335;51.486;7.562;2023-03-13T14:15:40;2.22;;;0.75;;
31760;SDS011;18335;51.486;7.562;2023-03-13T14:18:09;5.10;;;0.90;;
31760;SDS011;18335;51.486;7.562;2023-03-13T14:20:40;2.45;;;0.70;;
31760;SDS011;18335;51.486;7.562;2023-03-13T14:23:28;3.88;;;0.60;;
31760;SDS011;18335;51.486;7.562;2023-03-13T14:26:14;3.83;;;0.90;;
31760;SDS011;18335;51.486;7.562;2023-03-13T14:28:45;5.15;;;1.10;;
31760;SDS011;18335;51.486;7.562;2023-03-13T14:31:24;3.67;;;0.80;;
31760;SDS011;18335;51.486;7.562;2023-03-13T14:33:53;7.03;;;1.88;;
31760;SDS011;18335;51.486;7.562;2023-03-13T14:36:21;7.22;;;0.90;;
31760;SDS011;18335;51.486;7.562;2023-03-13T14:38:52;6.53;;;1.00;;
31760;SDS011;18335;51.486;7.562;2023-03-13T14:41:26;5.70;;;1.33;;
31760;SDS011;18335;51.486;7.562;2023-03-13T14:44:01;5.03;;;0.95;;
31760;SDS011;18335;51.486;7.562;2023-03-13T14:46:31;3.90;;;0.80;;
31760;SDS011;18335;51.486;7.562;2023-03-13T14:49:04;5.43;;;0.70;;
31760;SDS011;18335;51.486;7.562;2023-03-13T14:51:33;3.30;;;0.85;;
31760;SDS011;18335;51.486;7.562;2023-03-13T14:54:04;5.90;;;0.80;;
31760;SDS011;18335;51.486;7.562;2023-03-13T14:56:32;2.75;;;0.70;;
31760;SDS011;18335;51.486;7.562;2023-03-13T14:59:07;5.07;;;1.23;;
31760;SDS011;18335;51.486;7.562;2023-03-13T15:01:41;1.83;;;1.00;;
31760;SDS011;18335;51.486;7.562;2023-03-13T15:04:08;3.53;;;0.70;;
31760;SDS011;18335;51.486;7.562;2023-03-13T15:06:35;2.63;;;0.73;;
31760;SDS011;18335;51.486;7.562;2023-03-13T15:09:18;2.20;;;0.80;;
31760;SDS011;18335;51.486;7.562;2023-03-13T15:11:52;4.60;;;0.65;;
31760;SDS011;18335;51.486;7.562;2023-03-13T15:14:32;1.42;;;0.70;;
31760;SDS011;18335;51.486;7.562;2023-03-13T15:17:01;2.75;;;1.30;;
31760;SDS011;18335;51.486;7.562;2023-03-13T15:19:29;8.05;;;1.35;;
31760;SDS011;18335;51.486;7.562;2023-03-13T15:21:56;1.38;;;0.70;;
31760;SDS011;18335;51.486;7.562;2023-03-13T15:24:23;2.40;;;0.98;;
31760;SDS011;18335;51.486;7.562;2023-03-13T15:26:49;4.40;;;0.90;;
31760;SDS011;18335;51.486;7.562;2023-03-13T15:29:16;2.22;;;0.98;;
31760;SDS011;18335;51.486;7.562;2023-03-13T15:31:45;5.72;;;1.13;;
31760;SDS011;18335;51.486;7.562;2023-03-13T15:34:12;3.20;;;0.95;;
31760;SDS011;18335;51.486;7.562;2023-03-13T15:36:40;2.58;;;1.05;;